Time;durP1;ratioP1;P1;durP2;ratioP2;P2;SDS_P1;SDS_P2;PMS_P1;PMS_P2;Temp;Humidity;BMP_temperature;BMP_pressure;BME280_temperature;BME280_humidity;BME280_pressure;Samples;Min_cycle;Max_cycle;Signal;HPM_P1;HPM_P2
2023/03/30 00:00:59;;;;;;;9.93;3.07;;;12.20;99.90;;;;;;5057650;28;20468;-62
2023/03/30 00:03:27;;;;;;;5.73;3.00;;;12.20;99.90;;;;;;5057587;28;20520;-61
2023/03/30 00:05:55;;;;;;;4.00;2.73;;;12.20;99.90;;;;;;5057516;28;20897;-63
2023/03/30 00:08:26;;;;;;;6.17;3.60;;;12.30;99.90;;;;;;5057678;28;20532;-62
2023/03/30 00:10:59;;;;;;;4.70;2.87;;;12.30;99.90;;;;;;5057742;28;20536;-61
2023/03/30 00:13:28;;;;;;;6.20;3.07;;;12.30;99.90;;;;;;5057094;28;20766;-63
2023/03/30 00:15:55;;;;;;;3.50;2.80;;;12.30;99.90;;;;;;5056231;28;20462;-62
2023/03/30 00:18:22;;;;;;;4.90;2.97;;;12.30;99.90;;;;;;5057135;28;20473;-61
2023/03/30 00:20:51;;;;;;;6.83;3.13;;;12.30;99.90;;;;;;5057787;28;20496;-63
2023/03/30 00:23:18;;;;;;;5.70;3.50;;;12.40;99.90;;;;;;5058130;28;20476;-63
2023/03/30 00:25:47;;;;;;;7.93;3.30;;;12.40;99.90;;;;;;5058223;28;20498;-62
2023/03/30 00:28:15;;;;;;;9.83;3.23;;;12.40;99.90;;;;;;5057402;28;20472;-59
2023/03/30 00:30:42;;;;;;;5.40;3.20;;;12.40;99.90;;;;;;5058043;28;20592;-62
2023/03/30 00:33:09;;;;;;;4.40;3.20;;;12.50;99.90;;;;;;5058163;28;20494;-61
2023/03/30 00:35:36;;;;;;;4.93;3.60;;;12.60;99.90;;;;;;5057820;28;20459;-63
2023/03/30 00:38:04;;;;;;;4.00;3.10;;;12.50;99.90;;;;;;5057815;28;20502;-63
2023/03/30 00:40:37;;;;;;;6.00;3.10;;;12.50;99.90;;;;;;5057813;28;20473;-62
2023/03/30 00:43:07;;;;;;;6.33;2.87;;;12.50;99.90;;;;;;5056932;28;20971;-62
2023/03/30 00:45:35;;;;;;;7.13;3.60;;;12.50;99.90;;;;;;5057382;28;20762;-62
2023/03/30 00:48:06;;;;;;;4.10;2.70;;;12.50;99.90;;;;;;5057064;28;20466;-63
2023/03/30 00:50:38;;;;;;;10.50;3.47;;;12.50;99.90;;;;;;5057945;28;20441;-61
2023/03/30 00:53:11;;;;;;;5.03;3.40;;;12.40;99.90;;;;;;5057551;28;20505;-62
2023/03/30 00:55:40;;;;;;;6.90;3.20;;;12.50;99.90;;;;;;5057676;28;20915;-60
2023/03/30 00:58:09;;;;;;;7.37;3.30;;;12.40;99.90;;;;;;5057537;28;20864;-62
2023/03/30 01:00:38;;;;;;;12.87;3.30;;;12.50;99.90;;;;;;5057721;28;20891;-62
2023/03/30 01:03:11;;;;;;;8.50;3.70;;;12.50;99.90;;;;;;5057704;28;20462;-63
2023/03/30 01:05:41;;;;;;;6.67;3.10;;;12.60;99.90;;;;;;5056898;28;20493;-62
2023/03/30 01:08:15;;;;;;;7.17;3.10;;;12.60;99.90;;;;;;5057300;28;20894;-59
2023/03/30 01:10:43;;;;;;;5.17;2.80;;;12.60;99.90;;;;;;5057792;28;20470;-60
2023/03/30 01:13:18;;;;;;;9.80;3.43;;;12.70;99.90;;;;;;5057207;28;20516;-60
2023/03/30 01:16:00;;;;;;;6.27;2.97;;;12.70;99.90;;;;;;5057023;28;20921;-58
2023/03/30 01:18:36;;;;;;;5.90;3.13;;;12.70;99.90;;;;;;5037763;28;20773;-63
2023/03/30 01:21:26;;;;;;;7.53;3.20;;;12.80;99.90;;;;;;5037263;28;20466;-60
2023/03/30 01:24:26;;;;;;;7.30;2.93;;;12.90;99.90;;;;;;5037268;28;20853;-61
2023/03/30 01:26:58;;;;;;;6.00;2.77;;;12.90;99.90;;;;;;5036950;28;20772;-62
2023/03/30 01:29:46;;;;;;;7.20;3.10;;;13.00;99.90;;;;;;5032341;28;20489;-61
2023/03/30 01:32:36;;;;;;;6.97;3.97;;;13.10;99.90;;;;;;5036434;28;20487;-63
2023/03/30 01:35:38;;;;;;;5.20;3.93;;;13.20;99.90;;;;;;5036430;28;20455;-62
2023/03/30 01:38:30;;;;;;;5.27;2.67;;;13.40;99.90;;;;;;5037043;28;20880;-63
2023/03/30 01:41:06;;;;;;;10.87;2.80;;;13.50;99.90;;;;;;5036627;28;20916;-62
2023/03/30 01:43:38;;;;;;;7.37;3.53;;;13.60;99.90;;;;;;5036630;28;20498;-61
2023/03/30 01:46:23;;;;;;;6.67;2.30;;;13.70;99.90;;;;;;5036893;28;20782;-63
2023/03/30 01:48:58;;;;;;;13.50;2.57;;;13.70;99.90;;;;;;5037231;28;20652;-62
2023/03/30 01:51:29;;;;;;;4.67;2.50;;;13.70;99.90;;;;;;5036481;28;20910;-63
2023/03/30 01:54:02;;;;;;;8.50;2.70;;;13.80;99.90;;;;;;5036630;28;20459;-63
2023/03/30 01:56:35;;;;;;;7.60;2.80;;;13.90;99.90;;;;;;5036964;28;20505;-63
2023/03/30 01:59:08;;;;;;;4.97;2.73;;;14.00;99.90;;;;;;5037185;28;20467;-63
2023/03/30 02:01:38;;;;;;;4.67;3.23;;;14.00;99.90;;;;;;5036642;28;20469;-63
2023/03/30 02:04:09;;;;;;;7.20;2.77;;;14.10;99.90;;;;;;5036715;28;20467;-62
2023/03/30 02:06:42;;;;;;;4.23;2.63;;;14.10;99.90;;;;;;5037020;28;20782;-64
2023/03/30 02:09:14;;;;;;;3.60;2.70;;;14.20;99.90;;;;;;5037103;28;20463;-64
2023/03/30 02:11:45;;;;;;;8.07;3.03;;;14.20;99.90;;;;;;5036555;28;20467;-63
2023/03/30 02:14:21;;;;;;;6.70;2.93;;;14.30;99.90;;;;;;5035906;28;20491;-63
2023/03/30 02:16:56;;;;;;;3.80;2.90;;;14.30;99.90;;;;;;5036493;28;20892;-63
2023/03/30 02:19:23;;;;;;;8.60;3.50;;;14.30;99.90;;;;;;5035934;28;20466;-62
2023/03/30 02:21:50;;;;;;;14.30;3.00;;;14.30;99.90;;;;;;5035691;28;20752;-63
2023/03/30 02:24:22;;;;;;;6.00;3.03;;;14.30;99.90;;;;;;5034983;28;20669;-63
2023/03/30 02:26:52;;;;;;;4.23;3.10;;;14.40;99.90;;;;;;5035298;28;20495;-63
2023/03/30 02:29:21;;;;;;;8.73;3.57;;;14.30;99.90;;;;;;5035409;28;20485;-63
2023/03/30 02:31:50;;;;;;;6.13;2.90;;;14.30;99.90;;;;;;5035299;28;20474;-60
2023/03/30 02:34:31;;;;;;;6.10;2.87;;;14.30;99.90;;;;;;5043772;28;20466;-63
2023/03/30 02:37:18;;;;;;;8.13;3.70;;;14.30;99.90;;;;;;5056359;28;20556;-63
2023/03/30 02:39:58;;;;;;;5.70;3.30;;;14.30;99.90;;;;;;5058687;28;20886;-63
2023/03/30 02:42:42;;;;;;;3.07;2.50;;;14.30;99.90;;;;;;5059661;28;20461;-62
2023/03/30 02:45:22;;;;;;;7.87;3.33;;;14.30;99.90;;;;;;5060240;28;20466;-63
2023/03/30 02:48:07;;;;;;;4.33;2.93;;;14.30;99.90;;;;;;5059843;28;20468;-62
2023/03/30 02:50:41;;;;;;;7.50;3.00;;;14.20;99.90;;;;;;5060293;28;20485;-62
2023/03/30 02:53:15;;;;;;;5.43;2.53;;;14.20;99.90;;;;;;5058341;28;20906;-62
2023/03/30 02:55:51;;;;;;;4.93;3.67;;;14.20;99.90;;;;;;5058372;28;20462;-61
2023/03/30 02:58:25;;;;;;;6.47;2.60;;;14.20;99.90;;;;;;5057948;28;20891;-63
2023/03/30 03:00:55;;;;;;;9.43;4.20;;;14.20;99.90;;;;;;5057720;28;20922;-63
2023/03/30 03:03:32;;;;;;;5.27;3.60;;;14.20;99.90;;;;;;5057471;28;20520;-64
2023/03/30 03:06:13;;;;;;;9.23;2.60;;;14.30;99.90;;;;;;5057772;28;20500;-63
2023/03/30 03:08:43;;;;;;;9.17;3.40;;;14.40;99.90;;;;;;5059124;28;20793;-63
2023/03/30 03:11:17;;;;;;;6.67;3.00;;;14.40;99.90;;;;;;5059121;28;20462;-63
2023/03/30 03:13:46;;;;;;;8.03;2.73;;;14.40;99.90;;;;;;5058616;28;20469;-63
2023/03/30 03:16:14;;;;;;;8.00;3.03;;;14.40;99.90;;;;;;5058379;28;20490;-63
2023/03/30 03:18:41;;;;;;;5.47;3.37;;;14.40;99.90;;;;;;5058473;28;20473;-63
2023/03/30 03:21:09;;;;;;;5.57;3.20;;;14.50;99.90;;;;;;5058080;28;20468;-63
2023/03/30 03:23:37;;;;;;;4.37;2.83;;;14.50;99.90;;;;;;5070927;28;20476;-63
2023/03/30 03:26:06;;;;;;;6.97;3.40;;;14.50;99.90;;;;;;5057291;28;20490;-63
2023/03/30 03:28:34;;;;;;;6.10;2.77;;;14.50;99.90;;;;;;5057661;28;20501;-62
2023/03/30 03:31:04;;;;;;;11.07;2.90;;;14.40;99.90;;;;;;5056842;28;20480;-63
2023/03/30 03:33:32;;;;;;;8.63;3.37;;;14.40;99.90;;;;;;5057980;28;20737;-62
2023/03/30 03:36:00;;;;;;;7.40;3.13;;;14.40;99.90;;;;;;5058687;28;20553;-63
2023/03/30 03:38:27;;;;;;;7.77;2.70;;;14.40;99.90;;;;;;5058777;28;20561;-62
2023/03/30 03:40:56;;;;;;;6.07;3.10;;;14.40;99.90;;;;;;5059140;28;20552;-63
2023/03/30 03:43:24;;;;;;;13.03;3.30;;;14.40;99.90;;;;;;5058258;28;20466;-62
2023/03/30 03:45:52;;;;;;;5.73;3.70;;;14.40;99.90;;;;;;5064939;28;20489;-63
2023/03/30 03:48:23;;;;;;;8.53;3.43;;;14.40;99.90;;;;;;5059497;28;20462;-63
2023/03/30 03:50:51;;;;;;;5.80;2.90;;;14.30;99.90;;;;;;5058716;28;20755;-62
2023/03/30 03:53:18;;;;;;;4.30;3.13;;;14.30;99.90;;;;;;5070429;28;20496;-62
2023/03/30 03:55:46;;;;;;;7.87;3.90;;;14.30;99.90;;;;;;5078906;28;20457;-63
2023/03/30 03:58:14;;;;;;;6.67;3.40;;;14.20;99.90;;;;;;5076119;28;20469;-61
2023/03/30 04:00:41;;;;;;;7.37;3.10;;;14.20;99.90;;;;;;5077974;28;20731;-62
2023/03/30 04:03:08;;;;;;;5.30;3.17;;;14.20;99.90;;;;;;5078628;28;20650;-63
2023/03/30 04:05:37;;;;;;;7.30;2.77;;;14.10;99.90;;;;;;5077836;28;20461;-62
2023/03/30 04:08:04;;;;;;;6.57;3.43;;;14.10;99.90;;;;;;5077996;28;20457;-62
2023/03/30 04:10:32;;;;;;;5.40;3.43;;;14.20;99.90;;;;;;5070660;28;20565;-62
2023/03/30 04:12:59;;;;;;;7.63;3.40;;;14.10;99.90;;;;;;5058642;28;20466;-63
2023/03/30 04:15:26;;;;;;;5.90;2.93;;;14.20;99.90;;;;;;5068992;28;20467;-63
2023/03/30 04:17:56;;;;;;;6.07;3.70;;;14.20;99.90;;;;;;5068699;28;20465;-63
2023/03/30 04:20:24;;;;;;;7.63;3.70;;;14.30;99.90;;;;;;5059795;28;20489;-63
2023/03/30 04:22:54;;;;;;;6.47;3.50;;;14.20;99.90;;;;;;5063412;28;20463;-62
2023/03/30 04:25:24;;;;;;;8.00;3.30;;;14.20;99.90;;;;;;5058146;28;20458;-62
2023/03/30 04:27:52;;;;;;;5.43;3.43;;;14.20;99.90;;;;;;5057935;28;20522;-61
2023/03/30 04:30:21;;;;;;;6.07;3.40;;;14.20;99.90;;;;;;5057413;28;20490;-61
2023/03/30 04:33:02;;;;;;;6.63;3.43;;;14.10;99.90;;;;;;5057512;28;20958;-60
2023/03/30 04:35:31;;;;;;;12.33;3.67;;;14.20;99.90;;;;;;5056920;28;20910;-61
2023/03/30 04:38:00;;;;;;;6.50;3.10;;;14.20;99.90;;;;;;5056984;28;20462;-58
2023/03/30 04:40:28;;;;;;;8.30;3.23;;;14.10;99.90;;;;;;5057722;28;20767;-61
2023/03/30 04:43:00;;;;;;;7.27;3.83;;;14.00;99.90;;;;;;5056461;28;20760;-60
2023/03/30 04:45:28;;;;;;;5.23;3.30;;;14.00;99.90;;;;;;5056598;28;20918;-60
2023/03/30 04:47:55;;;;;;;7.23;2.93;;;14.10;99.90;;;;;;5057081;28;20942;-61
2023/03/30 04:50:22;;;;;;;7.63;4.10;;;14.00;99.90;;;;;;5057554;28;20879;-60
2023/03/30 04:52:49;;;;;;;7.23;3.40;;;14.10;99.90;;;;;;5055984;28;20454;-59
2023/03/30 04:55:18;;;;;;;8.10;3.20;;;14.10;99.90;;;;;;5056140;28;20454;-60
2023/03/30 04:57:48;;;;;;;9.50;4.70;;;14.10;99.90;;;;;;5055843;28;20545;-61
2023/03/30 05:00:16;;;;;;;4.37;2.90;;;14.10;99.90;;;;;;5056332;28;20845;-59
2023/03/30 05:02:43;;;;;;;4.70;3.23;;;14.10;99.90;;;;;;5055400;28;20455;-61
2023/03/30 05:05:10;;;;;;;7.30;3.57;;;14.20;99.90;;;;;;5055657;28;20469;-61
2023/03/30 05:07:37;;;;;;;8.63;3.30;;;14.20;99.90;;;;;;5055324;28;20493;-61
2023/03/30 05:10:05;;;;;;;7.03;3.30;;;14.20;99.90;;;;;;5055782;28;20759;-61
2023/03/30 05:12:34;;;;;;;6.60;3.50;;;14.30;99.90;;;;;;5055571;28;20947;-62
2023/03/30 05:15:01;;;;;;;5.83;3.00;;;14.20;99.90;;;;;;5056151;28;20482;-62
2023/03/30 05:17:28;;;;;;;6.07;2.90;;;14.30;99.90;;;;;;5055709;28;20450;-61
2023/03/30 05:19:55;;;;;;;5.30;3.17;;;14.40;99.90;;;;;;5055299;28;20460;-62
2023/03/30 05:22:23;;;;;;;8.33;3.40;;;14.40;99.90;;;;;;5054383;28;20565;-61
2023/03/30 05:24:50;;;;;;;5.37;2.90;;;14.50;99.90;;;;;;5051888;28;20454;-61
2023/03/30 05:27:20;;;;;;;6.03;3.07;;;14.40;99.90;;;;;;5053619;28;20498;-63
2023/03/30 05:29:48;;;;;;;7.43;3.77;;;14.50;99.90;;;;;;5054598;28;20485;-61
2023/03/30 05:32:15;;;;;;;5.27;3.07;;;14.40;99.90;;;;;;5055778;28;20746;-61
2023/03/30 05:34:43;;;;;;;6.63;3.23;;;14.40;99.90;;;;;;5054878;28;20888;-62
2023/03/30 05:37:10;;;;;;;3.27;2.93;;;14.40;99.90;;;;;;5052150;28;20452;-57
2023/03/30 05:39:37;;;;;;;5.47;3.40;;;14.40;99.90;;;;;;5055771;28;20464;-62
2023/03/30 05:42:04;;;;;;;6.37;3.17;;;14.40;99.90;;;;;;5055563;28;20462;-60
2023/03/30 05:44:32;;;;;;;7.23;3.20;;;14.30;99.90;;;;;;5056272;28;20458;-62
2023/03/30 05:47:00;;;;;;;4.70;2.80;;;14.30;99.90;;;;;;5053412;28;20490;-61
2023/03/30 05:49:28;;;;;;;7.63;3.33;;;14.30;99.90;;;;;;5053337;28;20807;-62
2023/03/30 05:51:55;;;;;;;6.63;3.20;;;14.30;99.90;;;;;;5053065;28;20459;-61
2023/03/30 05:54:26;;;;;;;4.43;2.60;;;14.30;99.90;;;;;;5053113;28;20512;-59
2023/03/30 05:56:53;;;;;;;6.00;3.10;;;14.30;99.90;;;;;;5053930;28;20454;-59
2023/03/30 05:59:21;;;;;;;5.10;3.00;;;14.20;99.90;;;;;;5054091;28;20485;-59
2023/03/30 06:01:48;;;;;;;4.43;2.90;;;14.20;99.90;;;;;;5050345;28;20470;-60
2023/03/30 06:04:18;;;;;;;5.63;2.80;;;14.20;99.90;;;;;;5055043;28;20458;-61
2023/03/30 06:06:45;;;;;;;6.33;2.83;;;14.20;99.90;;;;;;5054838;28;20549;-62
2023/03/30 06:09:12;;;;;;;5.40;3.00;;;14.20;99.90;;;;;;5054812;28;20458;-62
2023/03/30 06:11:39;;;;;;;5.67;2.87;;;14.20;99.90;;;;;;5055125;28;20910;-61
2023/03/30 06:14:06;;;;;;;13.60;3.20;;;14.20;99.90;;;;;;5056705;28;20486;-62
2023/03/30 06:16:34;;;;;;;4.77;2.73;;;14.20;99.90;;;;;;5057539;28;20458;-60
2023/03/30 06:19:01;;;;;;;5.00;3.00;;;14.20;99.90;;;;;;5057233;28;20458;-61
2023/03/30 06:21:30;;;;;;;4.93;2.90;;;14.10;99.90;;;;;;5055090;28;20918;-60
2023/03/30 06:23:57;;;;;;;4.67;3.40;;;14.10;99.90;;;;;;5056929;28;20771;-60
2023/03/30 06:26:24;;;;;;;4.70;2.77;;;14.10;99.90;;;;;;5056372;28;20450;-60
2023/03/30 06:28:51;;;;;;;6.20;4.00;;;14.10;99.90;;;;;;5055926;28;20913;-61
2023/03/30 06:31:18;;;;;;;5.57;3.27;;;14.10;99.90;;;;;;5056103;28;20467;-60
2023/03/30 06:33:46;;;;;;;5.40;3.50;;;14.20;99.90;;;;;;5053544;28;20470;-60
2023/03/30 06:36:14;;;;;;;9.40;5.80;;;14.30;99.90;;;;;;5055942;28;20469;-60
2023/03/30 06:38:43;;;;;;;6.10;3.50;;;14.40;99.90;;;;;;5056154;28;20457;-58
2023/03/30 06:41:11;;;;;;;10.97;5.23;;;14.30;99.90;;;;;;5054659;28;20454;-61
2023/03/30 06:47:01;;;;;;;9.97;4.87;;;14.30;99.90;;;;;;5055270;28;21333;-60
2023/03/30 06:49:29;;;;;;;10.70;5.00;;;14.20;99.90;;;;;;5058746;28;20470;-61
2023/03/30 06:51:57;;;;;;;11.30;4.10;;;14.20;99.90;;;;;;5057898;28;20966;-59
2023/03/30 06:54:26;;;;;;;10.03;4.30;;;14.30;99.90;;;;;;5058009;28;20454;-59
2023/03/30 06:56:53;;;;;;;12.57;4.77;;;14.40;99.90;;;;;;5054483;28;20450;-61
2023/03/30 06:59:20;;;;;;;9.53;4.07;;;14.40;99.90;;;;;;5057879;28;20906;-62
2023/03/30 07:01:48;;;;;;;9.43;5.80;;;14.50;99.90;;;;;;5058257;28;20570;-60
2023/03/30 07:04:15;;;;;;;10.13;4.70;;;14.40;99.90;;;;;;5058263;28;20769;-61
2023/03/30 07:06:42;;;;;;;9.53;4.10;;;14.40;99.90;;;;;;5057257;28;20489;-60
2023/03/30 07:09:09;;;;;;;8.10;4.40;;;14.50;99.90;;;;;;5057443;28;20521;-63
2023/03/30 07:11:38;;;;;;;9.03;4.57;;;14.80;99.90;;;;;;5054990;28;20910;-62
2023/03/30 07:14:08;;;;;;;6.10;3.30;;;14.70;99.90;;;;;;5058046;28;20477;-61
2023/03/30 07:16:37;;;;;;;5.23;3.27;;;14.70;99.90;;;;;;5055398;28;20455;-61
2023/03/30 07:19:05;;;;;;;6.27;3.47;;;14.50;99.90;;;;;;5058830;28;20462;-62
2023/03/30 07:21:32;;;;;;;5.57;3.70;;;14.50;99.90;;;;;;5058303;28;20470;-61
2023/03/30 07:24:00;;;;;;;7.33;2.80;;;14.50;99.90;;;;;;5059059;28;20465;-62
2023/03/30 07:26:28;;;;;;;9.33;3.57;;;14.50;99.90;;;;;;5059264;28;20466;-60
2023/03/30 07:28:57;;;;;;;4.40;2.40;;;14.40;99.90;;;;;;5058992;28;20515;-61
2023/03/30 07:31:24;;;;;;;7.37;2.80;;;14.50;99.90;;;;;;5058899;28;20776;-61
2023/03/30 07:33:52;;;;;;;4.43;2.90;;;14.50;99.90;;;;;;5059211;28;20478;-61
2023/03/30 07:36:19;;;;;;;5.23;3.30;;;14.50;99.90;;;;;;5058402;28;20466;-62
2023/03/30 07:38:46;;;;;;;5.13;2.93;;;14.50;99.90;;;;;;5056272;28;20942;-62
2023/03/30 07:41:15;;;;;;;6.03;2.90;;;14.50;99.90;;;;;;5057027;28;20461;-61
2023/03/30 07:43:42;;;;;;;5.57;3.37;;;14.50;99.90;;;;;;5056610;28;20887;-62
2023/03/30 07:46:12;;;;;;;6.67;3.10;;;14.40;99.90;;;;;;5057290;28;20465;-61
2023/03/30 07:48:39;;;;;;;4.80;3.20;;;14.20;99.90;;;;;;5056866;28;20496;-61
2023/03/30 07:51:08;;;;;;;5.27;3.77;;;14.10;99.90;;;;;;5056212;28;20462;-62
2023/03/30 07:53:36;;;;;;;5.90;2.97;;;13.90;99.90;;;;;;5057784;28;20524;-63
2023/03/30 07:56:04;;;;;;;6.70;3.77;;;13.70;99.90;;;;;;5058182;28;20464;-62
2023/03/30 07:58:31;;;;;;;7.93;3.23;;;13.40;99.90;;;;;;5058140;28;20463;-63
2023/03/30 08:38:01;;;;;;;5.70;2.57;;;11.20;1.00;;;;;;5023753;28;20473;-63
2023/03/30 08:40:28;;;;;;;7.83;3.63;;;11.20;1.00;;;;;;5037877;28;20473;-63
2023/03/30 08:43:24;;;;;;;12.57;3.50;;;11.30;1.00;;;;;;5038482;28;20463;-62
2023/03/30 08:45:52;;;;;;;10.50;3.80;;;11.40;1.00;;;;;;5038435;28;20466;-63
2023/03/30 08:48:22;;;;;;;6.67;3.50;;;11.40;1.00;;;;;;5038293;28;20793;-63
2023/03/30 08:50:56;;;;;;;7.53;3.20;;;11.40;1.00;;;;;;5037672;28;20473;-63
2023/03/30 08:53:25;;;;;;;11.83;4.50;;;11.50;1.00;;;;;;5037620;28;20469;-64
2023/03/30 08:55:57;;;;;;;10.80;3.90;;;11.60;1.00;;;;;;5037891;28;20502;-64
2023/03/30 08:58:32;;;;;;;4.67;2.93;;;11.70;1.00;;;;;;5037628;28;20478;-63
2023/03/30 09:01:08;;;;;;;13.70;4.80;;;11.70;1.00;;;;;;5037625;28;20459;-63
2023/03/30 09:03:42;;;;;;;9.57;3.30;;;11.60;1.00;;;;;;5037931;28;20462;-63
2023/03/30 09:06:14;;;;;;;6.07;3.13;;;11.70;1.00;;;;;;5037602;28;20562;-61
2023/03/30 09:08:43;;;;;;;12.33;3.70;;;11.80;1.00;;;;;;5037467;28;20799;-64
2023/03/30 09:11:17;;;;;;;7.60;3.50;;;11.80;1.00;;;;;;5037435;28;20558;-64
2023/03/30 09:13:46;;;;;;;7.37;3.67;;;11.90;1.00;;;;;;5036932;28;20471;-66
2023/03/30 09:16:19;;;;;;;10.03;4.17;;;12.10;1.00;;;;;;5037423;28;20550;-66
2023/03/30 09:18:51;;;;;;;7.30;3.40;;;12.20;1.00;;;;;;5037371;28;20732;-67
2023/03/30 09:21:21;;;;;;;8.60;4.07;;;12.70;1.00;;;;;;5051198;28;20928;-67
2023/03/30 09:23:51;;;;;;;9.90;3.70;;;13.20;1.00;;;;;;5050875;28;20557;-67
2023/03/30 09:26:27;;;;;;;9.13;4.13;;;13.90;1.00;;;;;;5053606;28;20481;-67
2023/03/30 09:29:03;;;;;;;8.87;3.77;;;14.30;1.00;;;;;;5056794;28;20489;-66
2023/03/30 09:31:36;;;;;;;6.30;2.83;;;14.70;99.90;;;;;;5056311;28;20508;-64
2023/03/30 09:34:06;;;;;;;7.30;3.80;;;14.60;99.90;;;;;;5051632;28;20552;-65
2023/03/30 09:36:39;;;;;;;9.70;3.40;;;14.70;99.90;;;;;;5054447;28;20462;-64
2023/03/30 09:39:17;;;;;;;16.00;3.63;;;14.40;99.90;;;;;;5055024;28;20462;-64
2023/03/30 09:41:59;;;;;;;11.20;4.13;;;14.70;99.90;;;;;;5052567;28;20547;-65
2023/03/30 09:44:33;;;;;;;9.67;3.97;;;15.00;99.90;;;;;;5055369;28;20815;-66
2023/03/30 09:47:04;;;;;;;7.70;3.50;;;15.10;99.90;;;;;;5056987;28;20540;-63
2023/03/30 09:49:38;;;;;;;7.23;3.30;;;14.50;99.90;;;;;;5059763;28;20997;-62
2023/03/30 09:52:08;;;;;;;8.10;3.40;;;13.80;99.90;;;;;;5060381;28;20473;-63
2023/03/30 09:54:38;;;;;;;5.90;3.03;;;13.40;99.90;;;;;;5041283;28;20558;-63
2023/03/30 09:57:06;;;;;;;5.37;2.80;;;12.80;99.90;;;;;;5041612;28;20562;-63
2023/03/30 09:59:35;;;;;;;8.97;3.37;;;12.50;99.90;;;;;;5041045;28;20566;-63
2023/03/30 10:02:11;;;;;;;6.27;2.97;;;12.20;99.90;;;;;;5041609;28;20465;-61
2023/03/30 10:04:56;;;;;;;14.50;3.23;;;12.10;99.90;;;;;;5060072;28;20783;-63
2023/03/30 10:07:25;;;;;;;7.23;2.80;;;11.80;99.90;;;;;;5060577;28;20450;-62
2023/03/30 10:09:54;;;;;;;10.80;2.80;;;11.70;99.90;;;;;;5060130;28;20525;-64
2023/03/30 10:12:24;;;;;;;6.27;2.87;;;11.60;99.90;;;;;;5059980;28;20867;-65
2023/03/30 10:14:55;;;;;;;10.43;3.07;;;11.50;99.90;;;;;;5060091;28;20546;-64
2023/03/30 10:17:25;;;;;;;6.70;2.90;;;11.40;99.90;;;;;;5056115;28;20489;-63
2023/03/30 10:19:53;;;;;;;7.20;2.70;;;11.40;99.90;;;;;;5059896;28;20454;-64
2023/03/30 10:22:22;;;;;;;9.00;2.70;;;11.30;99.90;;;;;;5057841;28;20461;-63
2023/03/30 10:24:51;;;;;;;6.80;2.47;;;11.20;99.90;;;;;;5058024;28;20488;-63
2023/03/30 10:27:26;;;;;;;8.10;2.70;;;11.20;99.90;;;;;;5056501;28;20474;-64
2023/03/30 10:29:53;;;;;;;5.97;2.97;;;11.10;99.90;;;;;;5057074;28;20489;-63
2023/03/30 10:32:26;;;;;;;5.70;2.53;;;11.10;99.90;;;;;;5057408;28;20454;-64
2023/03/30 10:34:56;;;;;;;8.10;3.10;;;11.20;1.00;;;;;;5056553;28;20809;-63
2023/03/30 10:37:30;;;;;;;6.20;3.10;;;11.30;1.00;;;;;;5055947;28;20531;-62
2023/03/30 10:39:59;;;;;;;11.70;4.43;;;11.50;1.00;;;;;;5057373;28;20827;-63
2023/03/30 10:42:31;;;;;;;7.70;2.90;;;11.50;99.90;;;;;;5055522;28;20589;-63
2023/03/30 10:45:01;;;;;;;8.57;3.10;;;11.60;99.90;;;;;;5057580;28;20797;-64
2023/03/30 10:47:41;;;;;;;8.17;4.63;;;11.60;99.90;;;;;;5057197;28;20763;-63
2023/03/30 10:50:17;;;;;;;9.77;3.03;;;11.70;99.90;;;;;;5057651;28;20468;-63
2023/03/30 10:52:55;;;;;;;6.30;2.37;;;12.10;99.90;;;;;;5058510;28;20911;-63
2023/03/30 10:55:28;;;;;;;8.80;3.23;;;12.50;99.90;;;;;;5059328;28;20954;-64
2023/03/30 10:58:04;;;;;;;7.67;3.77;;;12.80;99.90;;;;;;5058575;28;20560;-64
2023/03/30 11:00:45;;;;;;;7.67;3.67;;;13.00;99.90;;;;;;5053793;28;20454;-65
2023/03/30 11:03:18;;;;;;;8.63;3.50;;;13.30;99.90;;;;;;5054258;28;20557;-66
2023/03/30 11:05:49;;;;;;;6.30;2.60;;;13.50;99.90;;;;;;5056001;28;20967;-66
2023/03/30 11:08:20;;;;;;;9.00;4.03;;;14.20;99.90;;;;;;5056022;28;20589;-67
2023/03/30 11:10:49;;;;;;;10.20;3.30;;;14.60;99.90;;;;;;5056773;28;20458;-67
2023/03/30 11:13:22;;;;;;;6.57;2.80;;;14.90;99.90;;;;;;5056634;28;20729;-65
2023/03/30 11:15:53;;;;;;;6.50;3.10;;;15.30;99.90;;;;;;5057766;28;20462;-66
2023/03/30 11:18:25;;;;;;;6.40;3.97;;;15.10;99.90;;;;;;5057626;28;20459;-67
2023/03/30 11:21:00;;;;;;;6.50;2.97;;;15.00;99.90;;;;;;5056137;28;20565;-69
2023/03/30 11:23:37;;;;;;;7.00;3.00;;;15.20;99.90;;;;;;5058201;28;20502;-65
2023/03/30 11:26:07;;;;;;;5.67;3.23;;;15.70;99.90;;;;;;5058417;28;20460;-67
2023/03/30 11:28:58;;;;;;;6.77;3.17;;;16.40;99.90;;;;;;5057887;28;20780;-65
2023/03/30 11:31:40;;;;;;;8.57;2.93;;;16.70;99.90;;;;;;5060221;28;20983;-64
2023/03/30 11:34:19;;;;;;;7.20;2.40;;;17.20;99.90;;;;;;5058089;28;20825;-64
2023/03/30 11:36:51;;;;;;;6.80;3.30;;;17.00;99.90;;;;;;5056804;28;20474;-64
2023/03/30 11:39:24;;;;;;;5.03;2.93;;;17.00;99.90;;;;;;5058326;28;20462;-65
2023/03/30 11:42:00;;;;;;;8.63;2.90;;;17.20;99.90;;;;;;5054658;28;20457;-65
2023/03/30 11:44:29;;;;;;;8.30;3.13;;;17.30;99.90;;;;;;5052449;28;20516;-65
2023/03/30 11:47:09;;;;;;;5.20;2.87;;;16.70;99.90;;;;;;5042596;28;20577;-64
2023/03/30 11:49:48;;;;;;;8.93;2.90;;;16.30;99.90;;;;;;5036422;28;20501;-65
2023/03/30 11:52:26;;;;;;;12.90;3.20;;;15.60;99.90;;;;;;5037995;28;20561;-65
2023/03/30 11:55:24;;;;;;;8.73;2.77;;;15.20;99.90;;;;;;5046439;28;20953;-64
2023/03/30 11:58:00;;;;;;;3.83;2.70;;;15.20;99.90;;;;;;5035275;28;20478;-65
2023/03/30 12:00:46;;;;;;;6.00;2.70;;;15.60;99.90;;;;;;5055130;28;20560;-64
2023/03/30 12:03:21;;;;;;;10.30;2.93;;;15.70;99.90;;;;;;5055461;28;20441;-63
2023/03/30 12:05:54;;;;;;;6.63;3.00;;;15.90;99.90;;;;;;5055008;28;20465;-63
2023/03/30 12:08:42;;;;;;;7.23;3.27;;;16.20;99.90;;;;;;5054762;28;20494;-63
2023/03/30 12:11:18;;;;;;;9.40;4.07;;;16.70;99.90;;;;;;5052832;28;20516;-63
2023/03/30 12:13:45;;;;;;;9.03;3.70;;;17.20;99.90;;;;;;5053244;28;20548;-64
2023/03/30 12:16:19;;;;;;;8.27;2.60;;;17.40;99.90;;;;;;5053664;28;20566;-63
2023/03/30 12:18:58;;;;;;;10.23;3.67;;;16.90;99.90;;;;;;5053317;28;20433;-63
2023/03/30 12:21:31;;;;;;;5.10;3.20;;;16.00;99.90;;;;;;5052877;28;20462;-63
2023/03/30 12:24:12;;;;;;;5.57;3.27;;;15.50;99.90;;;;;;5050730;28;20465;-63
2023/03/30 12:26:40;;;;;;;9.67;3.53;;;15.30;99.90;;;;;;5050979;28;20462;-62
2023/03/30 12:29:12;;;;;;;9.40;3.17;;;15.50;99.90;;;;;;5051200;28;20485;-63
2023/03/30 12:32:04;;;;;;;4.20;2.77;;;15.20;99.90;;;;;;5053989;28;20888;-63
2023/03/30 12:34:34;;;;;;;10.33;3.70;;;14.90;99.90;;;;;;5053654;28;20655;-64
2023/03/30 12:37:05;;;;;;;10.90;2.93;;;14.50;99.90;;;;;;5054813;28;20564;-63
2023/03/30 12:39:43;;;;;;;5.27;2.50;;;14.50;99.90;;;;;;5054290;28;20469;-62
2023/03/30 12:42:25;;;;;;;11.63;4.00;;;14.50;99.90;;;;;;5054874;28;20497;-63
2023/03/30 12:45:05;;;;;;;5.43;2.77;;;14.40;99.90;;;;;;5054821;28;20465;-62
2023/03/30 12:48:07;;;;;;;4.87;2.20;;;14.60;99.90;;;;;;5054803;28;20465;-62
2023/03/30 12:50:42;;;;;;;3.33;2.00;;;15.10;99.90;;;;;;5054062;28;20462;-62
2023/03/30 12:53:34;;;;;;;4.63;2.50;;;15.20;99.90;;;;;;5055471;28;20953;-61
2023/03/30 12:56:05;;;;;;;8.03;2.50;;;15.70;99.90;;;;;;5038546;28;20497;-64
2023/03/30 12:59:07;;;;;;;3.80;2.23;;;16.00;99.90;;;;;;5055174;28;20462;-63
2023/03/30 13:01:45;;;;;;;5.87;2.20;;;15.60;99.90;;;;;;5055955;28;20469;-61
2023/03/30 13:04:17;;;;;;;4.27;2.30;;;14.90;99.90;;;;;;5056222;28;20933;-62
2023/03/30 13:06:51;;;;;;;5.20;2.40;;;14.60;99.90;;;;;;5053589;28;20470;-62
2023/03/30 13:09:33;;;;;;;3.40;2.33;;;14.30;99.90;;;;;;5055179;28;20588;-62
2023/03/30 13:12:31;;;;;;;4.53;2.53;;;14.20;99.90;;;;;;5054562;28;20544;-60
2023/03/30 13:15:02;;;;;;;4.30;2.57;;;13.90;99.90;;;;;;5054501;28;20624;-62
2023/03/30 13:17:49;;;;;;;5.60;2.73;;;13.70;99.90;;;;;;5053871;28;20565;-61
2023/03/30 13:20:19;;;;;;;8.60;2.87;;;13.20;99.90;;;;;;5054051;28;20492;-63
2023/03/30 13:23:27;;;;;;;6.30;2.70;;;13.20;99.90;;;;;;5052736;28;20454;-62
2023/03/30 13:26:06;;;;;;;3.07;1.67;;;13.20;99.90;;;;;;5030875;28;20462;-62
2023/03/30 13:28:55;;;;;;;5.90;2.47;;;13.40;99.90;;;;;;5051265;28;20931;-62
2023/03/30 13:31:51;;;;;;;3.90;2.00;;;13.60;99.90;;;;;;5054425;28;20925;-62
2023/03/30 13:34:28;;;;;;;3.60;2.13;;;13.70;99.90;;;;;;5053755;28;20458;-63
2023/03/30 13:37:03;;;;;;;4.73;2.60;;;13.80;99.90;;;;;;5051169;28;20595;-62
2023/03/30 13:39:38;;;;;;;6.20;2.60;;;13.80;99.90;;;;;;5054569;28;20886;-63
2023/03/30 13:42:22;;;;;;;5.70;2.30;;;13.80;99.90;;;;;;5055694;28;20458;-62
2023/03/30 13:44:57;;;;;;;7.70;2.70;;;13.90;99.90;;;;;;5056841;28;20466;-61
2023/03/30 13:47:47;;;;;;;5.23;3.03;;;14.80;99.90;;;;;;5057061;28;20461;-61
2023/03/30 13:50:23;;;;;;;4.73;2.93;;;15.80;99.90;;;;;;5054618;28;20508;-61
2023/03/30 13:52:54;;;;;;;8.13;2.50;;;15.70;99.90;;;;;;5055378;28;20878;-61